Time;durP1;ratioP1;P1;durP2;ratioP2;P2;SDS_P1;SDS_P2;PMS_P1;PMS_P2;Temp;Humidity;BMP_temperature;BMP_pressure;BME280_temperature;BME280_humidity;BME280_pressure;Samples;Min_cycle;Max_cycle;Signal;HPM_P1;HPM_P2
2023/09/09 00:01:29;;;;;;;11.38;9.77;;;17.80;99.90;;;;;;5155125;27;20046;-72
2023/09/09 00:03:56;;;;;;;11.90;9.85;;;17.90;99.90;;;;;;5154335;27;20564;-74
2023/09/09 00:06:22;;;;;;;13.27;10.38;;;18.00;99.90;;;;;;5144902;27;20058;-73
2023/09/09 00:08:48;;;;;;;11.40;9.60;;;18.10;99.90;;;;;;5141823;27;20035;-73
2023/09/09 00:11:14;;;;;;;9.60;7.90;;;18.20;99.90;;;;;;5157728;27;20046;-74
2023/09/09 00:13:41;;;;;;;7.93;6.97;;;18.20;99.90;;;;;;5152298;27;20175;-73
2023/09/09 00:16:07;;;;;;;8.18;6.53;;;18.20;99.90;;;;;;5157421;27;20047;-73
2023/09/09 00:18:33;;;;;;;8.80;7.25;;;18.10;99.90;;;;;;5150587;27;20399;-73
2023/09/09 00:20:58;;;;;;;9.95;7.30;;;18.00;99.90;;;;;;5157295;27;20053;-73
2023/09/09 00:23:24;;;;;;;7.80;6.93;;;17.80;99.90;;;;;;5139073;27;20046;-74
2023/09/09 00:25:50;;;;;;;8.40;6.72;;;17.70;99.90;;;;;;5157617;27;20051;-74
2023/09/09 00:28:16;;;;;;;9.98;7.70;;;17.60;99.90;;;;;;5157400;27;20445;-73
2023/09/09 00:30:42;;;;;;;10.48;7.68;;;17.50;99.90;;;;;;5138663;27;20051;-73
2023/09/09 00:33:08;;;;;;;10.45;8.35;;;17.50;99.90;;;;;;5157555;27;20049;-74
2023/09/09 00:35:34;;;;;;;8.80;7.90;;;17.40;99.90;;;;;;5157257;27;20031;-74
2023/09/09 00:38:00;;;;;;;8.05;7.18;;;17.40;99.90;;;;;;5157168;27;20047;-74
2023/09/09 00:40:26;;;;;;;10.63;8.65;;;17.40;99.90;;;;;;5157153;27;20047;-74
2023/09/09 00:42:52;;;;;;;8.38;7.43;;;17.40;99.90;;;;;;5156820;27;20039;-73
2023/09/09 00:45:18;;;;;;;8.50;7.60;;;17.40;99.90;;;;;;5156398;27;20053;-74
2023/09/09 00:47:45;;;;;;;12.05;10.23;;;17.30;99.90;;;;;;5156855;27;20075;-75
2023/09/09 00:50:13;;;;;;;13.55;10.48;;;17.30;99.90;;;;;;5156944;27;20067;-75
2023/09/09 00:52:40;;;;;;;12.63;9.98;;;17.30;99.90;;;;;;5139052;27;20046;-74
2023/09/09 00:55:07;;;;;;;10.88;8.35;;;17.30;99.90;;;;;;5156942;27;20053;-74
2023/09/09 00:57:33;;;;;;;8.75;7.70;;;17.30;99.90;;;;;;5156786;27;20520;-75
2023/09/09 01:00:03;;;;;;;9.85;7.50;;;17.20;99.90;;;;;;5156673;27;20360;-74
2023/09/09 01:02:28;;;;;;;9.90;7.65;;;17.00;99.90;;;;;;5156859;27;20046;-74
2023/09/09 01:04:54;;;;;;;9.00;7.68;;;17.00;99.90;;;;;;5157100;27;20051;-74
2023/09/09 01:07:20;;;;;;;12.35;8.80;;;17.00;99.90;;;;;;5156217;27;20129;-74
2023/09/09 01:09:45;;;;;;;10.25;7.80;;;17.00;99.90;;;;;;5156381;27;20073;-74
2023/09/09 01:12:11;;;;;;;8.90;7.00;;;17.00;99.90;;;;;;5156823;27;20043;-73
2023/09/09 01:14:40;;;;;;;9.15;8.10;;;17.00;99.90;;;;;;5156050;27;20046;-74
2023/09/09 01:17:07;;;;;;;10.95;8.15;;;17.10;99.90;;;;;;5156339;27;20098;-74
2023/09/09 01:19:34;;;;;;;11.60;8.73;;;17.10;99.90;;;;;;5156028;27;20065;-73
2023/09/09 01:22:03;;;;;;;10.60;8.50;;;17.00;99.90;;;;;;5155714;27;20081;-72
2023/09/09 01:24:32;;;;;;;7.95;6.53;;;17.00;99.90;;;;;;5123357;27;20070;-73
2023/09/09 01:26:58;;;;;;;6.38;5.00;;;17.00;99.90;;;;;;5156343;27;20122;-74
2023/09/09 01:29:23;;;;;;;9.38;6.90;;;16.90;99.90;;;;;;5156036;27;20114;-72
2023/09/09 01:31:49;;;;;;;10.43;8.13;;;16.90;99.90;;;;;;5134766;27;20039;-72
2023/09/09 01:34:15;;;;;;;12.85;10.30;;;16.80;99.90;;;;;;5156022;27;20046;-73
2023/09/09 01:36:40;;;;;;;9.95;7.00;;;16.70;99.90;;;;;;5156240;27;20043;-73
2023/09/09 01:39:06;;;;;;;10.40;8.43;;;16.60;99.90;;;;;;5137014;27;20043;-73
2023/09/09 01:41:32;;;;;;;10.15;7.50;;;16.50;99.90;;;;;;5155834;27;20414;-73
2023/09/09 01:43:57;;;;;;;8.90;7.15;;;16.50;99.90;;;;;;5117161;27;20043;-73
2023/09/09 01:46:23;;;;;;;10.40;7.00;;;16.40;99.90;;;;;;5150586;27;20043;-73
2023/09/09 01:48:49;;;;;;;9.50;7.65;;;16.30;99.90;;;;;;5137564;27;20078;-73
2023/09/09 01:51:14;;;;;;;9.65;7.30;;;16.30;99.90;;;;;;5155715;27;20076;-73
2023/09/09 01:53:40;;;;;;;10.15;8.10;;;16.20;99.90;;;;;;5119135;27;20084;-73
2023/09/09 01:56:06;;;;;;;9.10;7.60;;;16.20;99.90;;;;;;5130714;27;20120;-73
2023/09/09 01:58:31;;;;;;;8.18;7.13;;;16.20;99.90;;;;;;5156360;27;20111;-73
2023/09/09 02:00:57;;;;;;;6.90;6.15;;;16.20;99.90;;;;;;5155314;27;20467;-72
2023/09/09 02:03:25;;;;;;;7.28;6.55;;;16.20;99.90;;;;;;5119928;27;20078;-73
2023/09/09 02:05:51;;;;;;;6.53;5.80;;;16.20;99.90;;;;;;5155997;27;20047;-73
2023/09/09 02:08:17;;;;;;;7.70;6.90;;;16.20;99.90;;;;;;5151926;27;20048;-72
2023/09/09 02:10:42;;;;;;;8.55;6.82;;;16.20;99.90;;;;;;5155284;27;20403;-73
2023/09/09 02:13:08;;;;;;;9.95;6.75;;;16.20;99.90;;;;;;5155149;27;20042;-72
2023/09/09 02:15:34;;;;;;;10.60;7.55;;;16.20;99.90;;;;;;5155670;27;20091;-73
2023/09/09 02:18:00;;;;;;;8.50;6.95;;;16.20;99.90;;;;;;5154972;27;20086;-73
2023/09/09 02:20:25;;;;;;;9.32;7.13;;;16.20;99.90;;;;;;5154756;27;20039;-73
2023/09/09 02:22:51;;;;;;;10.43;7.20;;;16.20;99.90;;;;;;5155118;27;20094;-72
2023/09/09 02:25:17;;;;;;;9.75;6.97;;;16.20;99.90;;;;;;5135783;27;20383;-73
2023/09/09 02:27:42;;;;;;;10.27;8.00;;;16.20;99.90;;;;;;5155164;27;20391;-73
2023/09/09 02:30:08;;;;;;;8.65;6.97;;;16.20;99.90;;;;;;5154440;27;20115;-72
2023/09/09 02:32:34;;;;;;;10.60;8.10;;;16.20;99.90;;;;;;5152692;27;20045;-72
2023/09/09 02:35:00;;;;;;;43.58;8.00;;;16.20;99.90;;;;;;5154790;27;20049;-74
2023/09/09 02:37:26;;;;;;;6.88;5.93;;;16.20;99.90;;;;;;5154161;27;20038;-72
2023/09/09 02:39:53;;;;;;;7.45;6.03;;;16.20;99.90;;;;;;5136092;27;20034;-73
2023/09/09 02:42:20;;;;;;;9.43;6.60;;;16.10;99.90;;;;;;5156196;27;20502;-73
2023/09/09 02:44:49;;;;;;;7.97;6.45;;;16.10;99.90;;;;;;5136660;27;20403;-73
2023/09/09 02:47:15;;;;;;;22.02;6.72;;;16.10;99.90;;;;;;5155157;27;21211;-73
2023/09/09 02:49:43;;;;;;;45.55;9.68;;;16.10;99.90;;;;;;5154591;27;20034;-73
2023/09/09 02:52:10;;;;;;;7.55;6.65;;;16.10;99.90;;;;;;5154923;27;20043;-73
2023/09/09 02:54:37;;;;;;;12.20;7.13;;;16.10;99.90;;;;;;5154740;27;20039;-73
2023/09/09 02:57:05;;;;;;;6.53;5.72;;;16.10;99.90;;;;;;5136576;27;20069;-73
2023/09/09 02:59:33;;;;;;;6.43;5.40;;;16.00;99.90;;;;;;5154612;27;20077;-73
2023/09/09 03:01:59;;;;;;;7.60;6.25;;;16.00;99.90;;;;;;5154495;27;20054;-73
2023/09/09 03:04:25;;;;;;;11.23;8.13;;;16.10;99.90;;;;;;5154589;27;20058;-73
2023/09/09 03:06:50;;;;;;;12.32;9.73;;;16.20;99.90;;;;;;5154866;27;20111;-73
2023/09/09 03:09:16;;;;;;;10.02;7.40;;;16.30;99.90;;;;;;5153861;27;20039;-73
2023/09/09 03:11:42;;;;;;;9.05;7.45;;;16.40;99.90;;;;;;5129012;27;20066;-72
2023/09/09 03:14:08;;;;;;;9.65;7.50;;;16.40;99.90;;;;;;5154661;27;20050;-72
2023/09/09 03:16:38;;;;;;;12.02;8.38;;;16.40;99.90;;;;;;5153485;27;20414;-72
2023/09/09 03:19:04;;;;;;;10.98;8.90;;;16.30;99.90;;;;;;5147899;27;20042;-72
2023/09/09 03:21:30;;;;;;;10.82;8.15;;;16.30;99.90;;;;;;5155994;27;20407;-73
2023/09/09 03:23:56;;;;;;;10.43;8.43;;;16.30;99.90;;;;;;5152660;27;20542;-72
2023/09/09 03:26:23;;;;;;;10.77;7.95;;;16.30;99.90;;;;;;5148686;27;20376;-73
2023/09/09 03:28:49;;;;;;;10.90;8.70;;;16.30;99.90;;;;;;5124458;27;20050;-73
2023/09/09 03:31:15;;;;;;;12.38;9.32;;;16.30;99.90;;;;;;5126132;27;20059;-73
2023/09/09 03:33:41;;;;;;;12.57;10.18;;;16.20;99.90;;;;;;5146044;27;20042;-73
2023/09/09 03:36:07;;;;;;;12.27;8.52;;;16.10;99.90;;;;;;5155229;27;20050;-73
2023/09/09 03:38:34;;;;;;;13.65;9.50;;;16.10;99.90;;;;;;5157689;27;20498;-73
2023/09/09 03:40:59;;;;;;;10.52;8.93;;;16.10;99.90;;;;;;5155205;27;20398;-74
2023/09/09 03:43:25;;;;;;;8.10;6.88;;;16.00;99.90;;;;;;5154151;27;20055;-73
2023/09/09 03:45:55;;;;;;;9.50;7.72;;;16.00;99.90;;;;;;5157879;27;20093;-73
2023/09/09 03:48:20;;;;;;;11.55;8.93;;;15.90;99.90;;;;;;5158154;27;20046;-73
2023/09/09 03:50:46;;;;;;;11.98;8.85;;;15.80;99.90;;;;;;5151798;27;20053;-73
2023/09/09 03:53:11;;;;;;;13.20;9.60;;;15.80;99.90;;;;;;5158626;27;20516;-73
2023/09/09 03:55:37;;;;;;;11.48;9.40;;;15.80;99.90;;;;;;5157563;27;20479;-72
2023/09/09 03:58:03;;;;;;;10.13;8.40;;;15.70;99.90;;;;;;5155455;27;20030;-72
2023/09/09 04:00:28;;;;;;;13.73;10.68;;;15.60;99.90;;;;;;5151373;27;20042;-73
2023/09/09 04:02:54;;;;;;;12.00;9.25;;;15.60;99.90;;;;;;5136086;27;20039;-73
2023/09/09 04:05:20;;;;;;;12.85;9.75;;;15.70;99.90;;;;;;5102244;27;20442;-73
2023/09/09 04:07:46;;;;;;;12.82;9.90;;;15.70;99.90;;;;;;5149636;27;20043;-73
2023/09/09 04:10:13;;;;;;;11.63;8.73;;;15.80;99.90;;;;;;5148748;27;20050;-72
2023/09/09 04:12:39;;;;;;;11.60;9.15;;;15.80;99.90;;;;;;5158114;27;20479;-73
2023/09/09 04:15:06;;;;;;;11.45;8.80;;;15.80;99.90;;;;;;5151407;27;20051;-73
2023/09/09 04:17:32;;;;;;;9.18;6.95;;;15.80;99.90;;;;;;5129926;27;20042;-72
2023/09/09 04:19:58;;;;;;;10.95;8.40;;;15.70;99.90;;;;;;5157308;27;20045;-73
2023/09/09 04:22:25;;;;;;;13.52;8.30;;;15.60;99.90;;;;;;5157638;27;20049;-73
2023/09/09 04:24:53;;;;;;;10.32;8.52;;;15.60;99.90;;;;;;5157281;27;20039;-74
2023/09/09 04:27:19;;;;;;;9.32;7.75;;;15.60;99.90;;;;;;5157763;27;20433;-73
2023/09/09 04:29:45;;;;;;;17.05;12.05;;;15.70;99.90;;;;;;5139519;27;20050;-73
2023/09/09 04:32:12;;;;;;;11.07;9.02;;;15.70;99.90;;;;;;5157111;27;20046;-73
2023/09/09 04:34:38;;;;;;;11.73;9.38;;;15.70;99.90;;;;;;5157014;27;20078;-72
2023/09/09 04:37:04;;;;;;;13.77;11.00;;;15.80;99.90;;;;;;5157397;27;20043;-73
2023/09/09 04:39:29;;;;;;;12.57;9.90;;;15.90;99.90;;;;;;5141207;27;20103;-73
2023/09/09 04:41:55;;;;;;;9.93;7.68;;;16.00;99.90;;;;;;5157180;27;20125;-72
2023/09/09 04:44:21;;;;;;;12.80;9.70;;;16.00;99.90;;;;;;5144542;27;20479;-73
2023/09/09 04:46:46;;;;;;;14.20;10.18;;;16.00;99.90;;;;;;5151761;27;20050;-74
2023/09/09 04:49:12;;;;;;;14.30;11.15;;;16.10;99.90;;;;;;5153680;27;20406;-73
2023/09/09 04:51:38;;;;;;;14.68;11.70;;;16.10;99.90;;;;;;5148870;27;20498;-74
2023/09/09 04:54:04;;;;;;;13.18;9.73;;;16.20;99.90;;;;;;5156945;27;20135;-74
2023/09/09 04:56:29;;;;;;;11.68;9.80;;;16.20;99.90;;;;;;5156427;27;20588;-74
2023/09/09 04:58:55;;;;;;;14.95;10.60;;;16.20;99.90;;;;;;5156859;27;20069;-74
2023/09/09 05:01:21;;;;;;;13.27;9.98;;;16.20;99.90;;;;;;5157156;27;20368;-73
2023/09/09 05:03:47;;;;;;;14.52;10.63;;;16.10;99.90;;;;;;5156702;27;20092;-74
2023/09/09 05:06:13;;;;;;;12.18;10.18;;;16.20;99.90;;;;;;5157213;27;20058;-73
2023/09/09 05:08:38;;;;;;;13.85;11.40;;;16.20;99.90;;;;;;5155661;27;20523;-73
2023/09/09 05:11:04;;;;;;;15.95;12.55;;;16.20;99.90;;;;;;5137416;27;20398;-73
2023/09/09 05:13:30;;;;;;;13.43;11.48;;;16.20;99.90;;;;;;5151654;27;20046;-74
2023/09/09 05:15:55;;;;;;;15.02;12.00;;;16.20;99.90;;;;;;5152382;27;20042;-73
2023/09/09 05:18:21;;;;;;;12.73;10.00;;;16.10;99.90;;;;;;5156606;27;20452;-73
2023/09/09 05:20:47;;;;;;;13.35;10.80;;;16.20;99.90;;;;;;5137826;27;20081;-73
2023/09/09 05:23:12;;;;;;;12.45;10.38;;;16.20;99.90;;;;;;5134388;27;20055;-74
2023/09/09 05:25:38;;;;;;;14.98;11.50;;;16.20;99.90;;;;;;5154504;27;20527;-73
2023/09/09 05:28:04;;;;;;;14.38;11.15;;;16.20;99.90;;;;;;5155907;27;20099;-73
2023/09/09 05:30:30;;;;;;;15.40;11.90;;;16.20;99.90;;;;;;5156257;27;20070;-73
2023/09/09 05:32:55;;;;;;;15.65;12.40;;;16.30;99.90;;;;;;5156542;27;20043;-74
2023/09/09 05:35:21;;;;;;;16.10;12.00;;;16.30;99.90;;;;;;5138143;27;20054;-74
2023/09/09 05:37:47;;;;;;;15.57;13.10;;;16.40;99.90;;;;;;5152667;27;20130;-73
2023/09/09 05:40:13;;;;;;;18.60;14.05;;;16.50;99.90;;;;;;5151535;27;20095;-73
2023/09/09 05:42:39;;;;;;;19.38;13.98;;;16.50;99.90;;;;;;5155625;27;20039;-73
2023/09/09 05:45:08;;;;;;;20.20;16.15;;;16.60;99.90;;;;;;5137565;27;20053;-73
2023/09/09 05:47:35;;;;;;;20.90;16.35;;;16.60;99.90;;;;;;5155834;27;20054;-73
2023/09/09 05:50:01;;;;;;;24.17;17.98;;;16.70;99.90;;;;;;5154990;27;20047;-73
2023/09/09 05:52:27;;;;;;;22.67;17.30;;;16.70;99.90;;;;;;5156073;27;20053;-73
2023/09/09 05:54:52;;;;;;;23.48;18.60;;;16.80;99.90;;;;;;5155561;27;20050;-72
2023/09/09 05:57:18;;;;;;;23.70;18.00;;;16.90;99.90;;;;;;5156004;27;20050;-73
2023/09/09 05:59:44;;;;;;;23.80;18.20;;;16.90;99.90;;;;;;5155246;27;20066;-72
2023/09/09 06:02:09;;;;;;;26.77;19.48;;;17.00;99.90;;;;;;5155813;27;20038;-73
2023/09/09 06:04:35;;;;;;;28.05;19.45;;;17.00;99.90;;;;;;5136823;27;20065;-73
2023/09/09 06:07:01;;;;;;;25.88;20.67;;;17.10;99.90;;;;;;5144499;27;20045;-72
2023/09/09 06:09:27;;;;;;;23.83;19.58;;;17.20;99.90;;;;;;5155200;27;20087;-72
2023/09/09 06:11:52;;;;;;;24.85;19.77;;;17.30;99.90;;;;;;5133569;27;20047;-73
2023/09/09 06:14:18;;;;;;;26.58;19.70;;;17.40;99.90;;;;;;5146676;27;20099;-73
2023/09/09 06:16:44;;;;;;;25.50;19.10;;;17.40;99.90;;;;;;5155419;27;20083;-73
2023/09/09 06:19:09;;;;;;;25.60;20.27;;;17.50;99.90;;;;;;5155630;27;20039;-73
2023/09/09 06:21:35;;;;;;;28.52;21.40;;;17.60;99.90;;;;;;5134595;27;20043;-73
2023/09/09 06:24:00;;;;;;;27.70;20.25;;;17.70;99.90;;;;;;5149191;27;20118;-74
2023/09/09 06:26:33;;;;;;;27.08;20.70;;;17.80;99.90;;;;;;5154771;27;20046;-66
2023/09/09 06:28:58;;;;;;;25.27;19.75;;;17.80;99.90;;;;;;5155295;27;20043;-66
2023/09/09 06:31:24;;;;;;;24.83;19.90;;;17.90;99.90;;;;;;5137352;27;20046;-65
2023/09/09 06:33:50;;;;;;;25.50;18.60;;;18.00;99.90;;;;;;5155301;27;20061;-65
2023/09/09 06:36:20;;;;;;;26.52;20.15;;;18.10;99.90;;;;;;5137169;27;20391;-66
2023/09/09 06:38:47;;;;;;;23.30;19.02;;;18.20;99.90;;;;;;5154507;27;20486;-65
2023/09/09 06:41:13;;;;;;;23.55;19.40;;;18.30;99.90;;;;;;5137273;27;20470;-65
2023/09/09 06:43:39;;;;;;;25.98;20.70;;;18.40;99.90;;;;;;5155225;27;20478;-65
2023/09/09 06:46:04;;;;;;;24.17;19.90;;;18.50;99.90;;;;;;5125504;27;20506;-64
2023/09/09 06:48:30;;;;;;;25.30;20.50;;;18.50;99.90;;;;;;5134247;27;20051;-66
2023/09/09 06:50:56;;;;;;;27.90;20.50;;;18.70;99.90;;;;;;5134395;27;20058;-65
2023/09/09 06:53:24;;;;;;;26.02;20.13;;;18.80;99.90;;;;;;5116557;28;20066;-65
2023/09/09 06:55:51;;;;;;;25.65;20.08;;;18.90;99.90;;;;;;5134990;27;20053;-65
2023/09/09 06:58:17;;;;;;;24.17;20.25;;;19.00;99.90;;;;;;5134496;27;20047;-66
2023/09/09 07:00:49;;;;;;;28.00;20.90;;;19.10;99.90;;;;;;5134091;27;20042;-65
2023/09/09 07:03:15;;;;;;;26.77;20.48;;;19.20;99.90;;;;;;5133845;28;20062;-67
2023/09/09 07:05:41;;;;;;;27.80;20.75;;;19.40;99.90;;;;;;5136842;27;20051;-66
2023/09/09 07:08:06;;;;;;;25.27;20.98;;;19.50;99.90;;;;;;5136277;27;20047;-67
2023/09/09 07:10:32;;;;;;;23.60;19.83;;;19.60;99.90;;;;;;5154907;27;20046;-65
2023/09/09 07:12:58;;;;;;;25.15;19.77;;;19.70;99.90;;;;;;5159179;27;20046;-65
2023/09/09 07:15:23;;;;;;;25.17;20.27;;;19.80;99.90;;;;;;5159290;27;20075;-65
2023/09/09 07:17:49;;;;;;;26.48;20.67;;;20.00;99.90;;;;;;5140749;27;20051;-66
2023/09/09 07:20:18;;;;;;;25.88;20.02;;;20.10;99.90;;;;;;5159144;27;20438;-65
2023/09/09 07:22:44;;;;;;;25.90;20.88;;;20.20;99.90;;;;;;5159152;27;20058;-65
2023/09/09 07:25:09;;;;;;;24.60;20.30;;;20.30;99.90;;;;;;5158508;27;20043;-66
2023/09/09 07:27:35;;;;;;;24.70;20.52;;;20.40;99.90;;;;;;5140136;27;20104;-65
2023/09/09 07:30:01;;;;;;;25.08;19.08;;;20.60;99.90;;;;;;5138419;27;20047;-65
2023/09/09 07:32:26;;;;;;;23.52;18.73;;;20.70;99.90;;;;;;5150438;27;20498;-65
2023/09/09 07:34:52;;;;;;;24.55;18.70;;;20.90;99.90;;;;;;5148642;27;20114;-65
2023/09/09 07:37:18;;;;;;;21.40;17.23;;;21.00;99.90;;;;;;5149025;27;20384;-65
2023/09/09 07:39:51;;;;;;;22.08;15.85;;;21.20;99.90;;;;;;5124370;27;20046;-65
2023/09/09 07:42:17;;;;;;;21.30;16.38;;;21.50;99.90;;;;;;5138635;27;20085;-66
2023/09/09 07:44:45;;;;;;;20.23;16.50;;;21.60;99.90;;;;;;5155057;27;20080;-66
2023/09/09 07:47:12;;;;;;;19.77;16.52;;;21.80;99.90;;;;;;5155402;27;20074;-66
2023/09/09 07:49:37;;;;;;;21.58;17.08;;;22.00;99.90;;;;;;5154236;27;20039;-66
2023/09/09 07:52:04;;;;;;;20.75;16.60;;;22.10;99.90;;;;;;5155713;27;20087;-65
2023/09/09 07:54:32;;;;;;;19.50;16.65;;;22.10;99.90;;;;;;5155501;27;20047;-66
2023/09/09 07:56:58;;;;;;;19.95;15.50;;;22.20;99.90;;;;;;5155787;27;20046;-65
2023/09/09 07:59:26;;;;;;;20.70;15.93;;;22.30;99.90;;;;;;5137245;27;20039;-66
2023/09/09 08:01:52;;;;;;;19.48;16.27;;;22.40;99.90;;;;;;5136864;27;20395;-65
2023/09/09 08:04:18;;;;;;;19.73;15.65;;;22.50;99.90;;;;;;5101019;27;20059;-64
2023/09/09 08:06:46;;;;;;;18.60;15.52;;;22.60;99.90;;;;;;5143959;27;20054;-65
2023/09/09 08:09:12;;;;;;;21.45;16.00;;;22.70;99.90;;;;;;5143257;27;20448;-65
2023/09/09 08:11:37;;;;;;;18.88;15.10;;;22.70;99.90;;;;;;5136334;27;20429;-64
2023/09/09 08:14:03;;;;;;;17.30;14.65;;;22.80;99.90;;;;;;5120111;27;20055;-65
2023/09/09 08:16:30;;;;;;;19.60;15.40;;;22.90;99.90;;;;;;5157448;27;20475;-66
2023/09/09 08:18:58;;;;;;;19.58;15.50;;;23.00;99.90;;;;;;5139720;27;20043;-65
2023/09/09 08:21:24;;;;;;;17.42;15.05;;;23.10;99.90;;;;;;5154009;27;20137;-66
2023/09/09 08:23:49;;;;;;;18.63;15.15;;;23.20;99.90;;;;;;5147936;27;20535;-66
2023/09/09 08:26:15;;;;;;;17.85;15.18;;;23.20;99.90;;;;;;5153676;27;20035;-66
2023/09/09 08:28:41;;;;;;;19.50;15.43;;;23.40;99.90;;;;;;5156654;27;20494;-65
2023/09/09 08:31:06;;;;;;;20.17;15.18;;;23.40;99.90;;;;;;5134231;27;20514;-66
2023/09/09 08:33:32;;;;;;;20.52;15.85;;;23.40;99.90;;;;;;5155785;27;20088;-66
2023/09/09 08:36:05;;;;;;;18.67;15.30;;;23.50;99.90;;;;;;5156859;27;20042;-65
2023/09/09 08:38:31;;;;;;;19.52;14.90;;;23.60;99.90;;;;;;5153927;27;20047;-65
2023/09/09 08:41:24;;;;;;;18.73;14.93;;;23.70;99.90;;;;;;5155436;27;20448;-66
2023/09/09 08:44:25;;;;;;;19.05;14.90;;;23.80;99.90;;;;;;5141940;27;20043;-65
2023/09/09 08:46:55;;;;;;;18.55;15.30;;;23.90;99.90;;;;;;5135980;27;20074;-65
2023/09/09 08:49:25;;;;;;;18.38;15.05;;;24.00;99.90;;;;;;5135797;27;20043;-65
2023/09/09 08:51:52;;;;;;;18.77;15.02;;;24.10;99.90;;;;;;5117828;27;20050;-65
2023/09/09 08:54:18;;;;;;;18.63;15.27;;;24.20;99.90;;;;;;5117302;27;20135;-66
2023/09/09 08:56:44;;;;;;;18.80;15.02;;;24.30;99.90;;;;;;5134967;27;20130;-66
2023/09/09 08:59:12;;;;;;;20.17;15.30;;;24.50;99.90;;;;;;5116879;27;20054;-65
2023/09/09 09:01:40;;;;;;;15.60;14.00;;;24.50;99.90;;;;;;5135094;27;20472;-66
2023/09/09 09:04:05;;;;;;;18.73;15.13;;;24.60;99.90;;;;;;5151533;27;20125;-65
2023/09/09 09:06:33;;;;;;;20.23;15.45;;;24.60;99.90;;;;;;5156511;27;20468;-66
2023/09/09 09:08:59;;;;;;;18.83;15.38;;;24.70;99.90;;;;;;5155881;27;20420;-65
2023/09/09 09:11:25;;;;;;;17.45;14.63;;;24.70;99.90;;;;;;5156202;27;20049;-65
2023/09/09 09:13:51;;;;;;;18.63;15.27;;;24.80;99.90;;;;;;5156148;27;20098;-65
2023/09/09 09:16:18;;;;;;;17.27;14.35;;;24.90;99.90;;;;;;5156570;27;20073;-66
2023/09/09 09:18:44;;;;;;;17.27;14.20;;;25.00;99.90;;;;;;5155611;27;20054;-66
2023/09/09 09:21:10;;;;;;;17.77;14.13;;;25.10;99.90;;;;;;5156275;27;20493;-66
2023/09/09 09:23:46;;;;;;;18.67;15.00;;;25.20;99.90;;;;;;5155863;27;20134;-66
2023/09/09 09:26:29;;;;;;;17.23;14.00;;;25.20;99.90;;;;;;5155791;27;20057;-66
2023/09/09 09:28:55;;;;;;;18.30;14.70;;;25.30;99.90;;;;;;5155515;27;20498;-66
2023/09/09 09:31:22;;;;;;;17.30;14.10;;;25.30;99.90;;;;;;5150881;27;20042;-66
2023/09/09 09:33:51;;;;;;;16.45;13.32;;;25.50;99.90;;;;;;5145146;27;20122;-67
2023/09/09 09:36:20;;;;;;;16.45;12.88;;;25.50;99.90;;;;;;5145104;27;20045;-68
2023/09/09 09:38:47;;;;;;;14.63;13.10;;;25.60;99.90;;;;;;5138259;27;20047;-67
2023/09/09 09:41:16;;;;;;;14.45;12.95;;;25.70;99.90;;;;;;5134894;27;20043;-67
2023/09/09 09:43:41;;;;;;;15.55;12.25;;;25.80;99.90;;;;;;5117163;27;20103;-66
2023/09/09 09:46:17;;;;;;;13.10;11.40;;;25.90;99.90;;;;;;5134801;27;20491;-67
2023/09/09 09:48:44;;;;;;;12.85;10.93;;;26.00;99.90;;;;;;5135083;27;20404;-67
2023/09/09 09:51:10;;;;;;;13.57;11.13;;;26.10;99.90;;;;;;5135012;27;20043;-66
2023/09/09 09:53:48;;;;;;;14.75;11.73;;;26.20;99.90;;;;;;5134796;27;20432;-67
2023/09/09 09:56:18;;;;;;;12.02;9.82;;;26.30;99.90;;;;;;5133980;27;20051;-67
2023/09/09 09:58:46;;;;;;;12.75;9.77;;;26.40;99.90;;;;;;5135182;27;20035;-65
2023/09/09 10:01:12;;;;;;;14.75;10.00;;;26.50;99.90;;;;;;5150819;27;20051;-66
2023/09/09 10:03:55;;;;;;;9.85;8.85;;;26.60;99.90;;;;;;5132922;27;20054;-66
2023/09/09 10:06:28;;;;;;;11.73;9.70;;;26.60;99.90;;;;;;5143440;27;20042;-67
2023/09/09 10:09:09;;;;;;;12.88;10.27;;;26.70;99.90;;;;;;5154728;27;20078;-66
2023/09/09 10:11:53;;;;;;;13.10;10.90;;;26.70;99.90;;;;;;5154781;27;20291;-66
2023/09/09 10:14:24;;;;;;;12.05;10.00;;;26.70;99.90;;;;;;5154674;27;20042;-66
2023/09/09 10:16:52;;;;;;;10.95;8.85;;;26.70;99.90;;;;;;5155039;27;20054;-66
2023/09/09 10:19:19;;;;;;;12.60;8.50;;;26.80;99.90;;;;;;5154240;27;20074;-66
2023/09/09 10:21:46;;;;;;;9.90;8.88;;;26.80;99.90;;;;;;5155082;27;20039;-67
2023/09/09 10:24:13;;;;;;;9.90;8.25;;;26.90;99.90;;;;;;5154637;27;20569;-65
2023/09/09 10:26:39;;;;;;;10.15;8.05;;;27.10;99.90;;;;;;5154951;27;20046;-65
2023/09/09 10:29:05;;;;;;;10.20;7.43;;;27.20;99.90;;;;;;5154869;27;20444;-68
2023/09/09 10:31:32;;;;;;;10.57;7.82;;;27.40;99.90;;;;;;5144258;27;20133;-65
2023/09/09 10:34:00;;;;;;;12.27;8.50;;;27.50;99.90;;;;;;5133855;27;20043;-65
2023/09/09 10:36:29;;;;;;;11.82;8.85;;;27.50;99.90;;;;;;5135808;27;20058;-65
2023/09/09 10:38:58;;;;;;;12.25;9.48;;;27.60;99.90;;;;;;5130287;27;20039;-67
2023/09/09 10:41:24;;;;;;;10.75;8.82;;;27.70;99.90;;;;;;5154324;27;20042;-66
2023/09/09 10:43:49;;;;;;;10.57;8.68;;;27.80;99.90;;;;;;5154417;27;20398;-67
2023/09/09 10:46:15;;;;;;;10.77;9.07;;;27.80;99.90;;;;;;5134041;27;20241;-67
2023/09/09 10:48:44;;;;;;;13.80;9.82;;;27.90;99.90;;;;;;5154102;27;20043;-67
2023/09/09 10:51:13;;;;;;;12.43;8.85;;;28.00;99.90;;;;;;5135940;27;20047;-67
2023/09/09 10:53:38;;;;;;;11.27;9.80;;;28.10;99.90;;;;;;5148354;27;20046;-67
2023/09/09 10:56:16;;;;;;;14.00;9.63;;;28.20;99.90;;;;;;5115714;27;20091;-67
2023/09/09 10:58:43;;;;;;;11.20;9.50;;;28.30;99.90;;;;;;5134051;27;20103;-67
2023/09/09 11:01:20;;;;;;;13.95;9.45;;;28.40;99.90;;;;;;5133711;27;20054;-67
2023/09/09 11:03:47;;;;;;;11.02;9.40;;;28.50;99.90;;;;;;5133653;27;20503;-67
2023/09/09 11:06:33;;;;;;;13.10;10.52;;;28.60;99.90;;;;;;5141340;27;20049;-67
2023/09/09 11:09:00;;;;;;;;;;;28.50;99.90;;;;;;5145836;27;20043;-66
2023/09/09 11:11:37;;;;;;;14.95;10.70;;;28.40;99.90;;;;;;5137334;27;19926;-66
2023/09/09 11:14:05;;;;;;;13.95;11.02;;;28.30;99.90;;;;;;5141558;27;20095;-66
2023/09/09 11:16:37;;;;;;;13.82;11.82;;;28.30;99.90;;;;;;5149850;27;20043;-66
2023/09/09 11:19:08;;;;;;;13.98;11.63;;;28.20;99.90;;;;;;5105540;27;20039;-66
2023/09/09 11:21:41;;;;;;;13.45;12.00;;;28.10;99.90;;;;;;5154406;27;20043;-66
2023/09/09 11:24:07;;;;;;;15.20;12.40;;;27.90;99.90;;;;;;5125769;28;20055;-66
2023/09/09 11:26:37;;;;;;;12.55;10.13;;;27.90;99.90;;;;;;5098613;28;20043;-66
2023/09/09 11:29:04;;;;;;;12.38;9.90;;;27.80;99.90;;;;;;5133292;27;20036;-65
2023/09/09 11:31:30;;;;;;;9.73;8.20;;;27.80;99.90;;;;;;5124363;27;20069;-66
2023/09/09 11:33:57;;;;;;;12.52;9.57;;;27.80;99.90;;;;;;5148344;27;20130;-65
2023/09/09 11:36:23;;;;;;;11.88;10.15;;;27.80;99.90;;;;;;5134459;27;20035;-64
2023/09/09 11:38:49;;;;;;;14.93;11.15;;;27.80;99.90;;;;;;5143872;27;20112;-65
2023/09/09 11:41:25;;;;;;;12.85;9.82;;;27.70;99.90;;;;;;5154245;27;20532;-64
2023/09/09 11:44:04;;;;;;;8.70;7.75;;;27.70;99.90;;;;;;5153240;27;20509;-65
2023/09/09 11:46:40;;;;;;;9.68;7.80;;;27.70;99.90;;;;;;5135370;27;20039;-65
2023/09/09 11:49:06;;;;;;;9.32;8.27;;;27.70;99.90;;;;;;5154156;27;20126;-66
2023/09/09 11:51:33;;;;;;;11.18;8.90;;;27.70;99.90;;;;;;5153837;27;20192;-66
2023/09/09 11:54:02;;;;;;;15.48;10.20;;;27.70;99.90;;;;;;5153230;27;20043;-66
2023/09/09 11:56:29;;;;;;;12.57;10.75;;;27.70;99.90;;;;;;5138153;27;20051;-66
2023/09/09 11:58:55;;;;;;;16.67;11.80;;;27.80;99.90;;;;;;5140649;27;20105;-65
2023/09/09 12:01:22;;;;;;;12.30;10.00;;;27.80;99.90;;;;;;5156140;27;20444;-65
2023/09/09 12:03:49;;;;;;;16.40;10.68;;;27.90;99.90;;;;;;5154262;27;20086;-66
2023/09/09 12:06:21;;;;;;;10.63;9.27;;;27.90;99.90;;;;;;5144340;27;20055;-66
2023/09/09 12:08:48;;;;;;;12.55;10.32;;;27.90;99.90;;;;;;5154540;27;20070;-64
2023/09/09 12:11:16;;;;;;;13.68;9.15;;;28.00;99.90;;;;;;5150340;27;20043;-65
2023/09/09 12:13:43;;;;;;;12.25;9.52;;;28.00;99.90;;;;;;5138363;27;20558;-65
2023/09/09 12:16:10;;;;;;;13.30;10.20;;;28.00;99.90;;;;;;5156817;27;20490;-65
2023/09/09 12:18:36;;;;;;;12.60;9.52;;;28.00;99.90;;;;;;5157515;27;20046;-65
2023/09/09 12:21:08;;;;;;;13.75;9.80;;;28.00;99.90;;;;;;5157487;27;20050;-65
2023/09/09 12:23:39;;;;;;;12.68;9.23;;;28.00;99.90;;;;;;5157336;27;20038;-64
2023/09/09 12:26:16;;;;;;;12.52;9.55;;;28.00;99.90;;;;;;5157601;27;20046;-64
2023/09/09 12:29:03;;;;;;;11.20;9.02;;;27.90;99.90;;;;;;5157497;27;20474;-65
2023/09/09 12:31:30;;;;;;;14.23;10.15;;;27.90;99.90;;;;;;5146803;27;20049;-64
2023/09/09 12:33:56;;;;;;;14.75;10.32;;;27.90;99.90;;;;;;5136444;27;20051;-64